sensor_id;sensor_type;location;lat;lon;timestamp;pressure;altitude;pressure_sealevel;temperature;humidity
37132;BME280;23035;50.032;21.978;2023-07-31T00:03:22;67169.50;;;18.97;100.00
37132;BME280;23035;50.032;21.978;2023-07-31T00:08:26;67193.31;;;19.22;100.00
37132;BME280;23035;50.032;21.978;2023-07-31T00:13:30;67252.09;;;19.74;100.00
37132;BME280;23035;50.032;21.978;2023-07-31T00:18:36;67264.53;;;19.86;100.00
37132;BME280;23035;50.032;21.978;2023-07-31T00:23:40;67240.72;;;19.61;100.00
37132;BME280;23035;50.032;21.978;2023-07-31T00:28:43;67255.34;;;19.77;100.00
37132;BME280;23035;50.032;21.978;2023-07-31T00:33:51;67259.66;;;19.82;100.00
37132;BME280;23035;50.032;21.978;2023-07-31T00:38:54;67201.81;;;19.25;100.00
37132;BME280;23035;50.032;21.978;2023-07-31T00:43:59;67206.81;;;19.34;100.00
37132;BME280;23035;50.032;21.978;2023-07-31T00:49:05;67221.78;;;19.43;100.00
37132;BME280;23035;50.032;21.978;2023-07-31T00:54:09;67232.59;;;19.54;100.00
37132;BME280;23035;50.032;21.978;2023-07-31T00:59:14;67186.16;;;19.10;100.00
37132;BME280;23035;50.032;21.978;2023-07-31T01:04:21;67189.47;;;19.15;100.00
37132;BME280;23035;50.032;21.978;2023-07-31T01:09:30;67148.91;;;18.75;100.00
37132;BME280;23035;50.032;21.978;2023-07-31T01:14:38;67234.19;;;19.55;100.00
37132;BME280;23035;50.032;21.978;2023-07-31T01:19:43;67214.75;;;19.37;100.00
37132;BME280;23035;50.032;21.978;2023-07-31T01:24:55;67118.22;;;18.48;100.00
37132;BME280;23035;50.032;21.978;2023-07-31T01:30:07;67149.41;;;18.73;100.00
37132;BME280;23035;50.032;21.978;2023-07-31T01:35:14;67126.38;;;18.58;100.00
37132;BME280;23035;50.032;21.978;2023-07-31T01:40:18;67099.25;;;18.28;100.00
37132;BME280;23035;50.032;21.978;2023-07-31T01:45:23;67098.81;;;18.30;100.00
37132;BME280;23035;50.032;21.978;2023-07-31T01:50:28;67098.81;;;18.30;100.00
37132;BME280;23035;50.032;21.978;2023-07-31T01:55:32;67055.97;;;17.82;100.00
37132;BME280;23035;50.032;21.978;2023-07-31T02:00:37;67031.28;;;17.64;100.00
37132;BME280;23035;50.032;21.978;2023-07-31T02:05:44;66965.53;;;17.02;100.00
37132;BME280;23035;50.032;21.978;2023-07-31T02:10:48;67064.75;;;17.95;100.00
37132;BME280;23035;50.032;21.978;2023-07-31T02:15:54;67107.34;;;18.35;100.00
37132;BME280;23035;50.032;21.978;2023-07-31T02:20:58;67102.50;;;18.31;100.00
37132;BME280;23035;50.032;21.978;2023-07-31T02:26:02;67180.75;;;19.05;100.00
37132;BME280;23035;50.032;21.978;2023-07-31T02:31:08;67132.09;;;18.56;100.00
37132;BME280;23035;50.032;21.978;2023-07-31T02:36:11;67110.66;;;18.41;100.00
37132;BME280;23035;50.032;21.978;2023-07-31T02:41:17;67116.06;;;18.46;100.00
37132;BME280;23035;50.032;21.978;2023-07-31T02:46:23;67091.25;;;18.23;100.00
37132;BME280;23035;50.032;21.978;2023-07-31T02:51:27;67095.50;;;18.24;100.00
37132;BME280;23035;50.032;21.978;2023-07-31T02:56:31;67128.94;;;18.56;100.00
37132;BME280;23035;50.032;21.978;2023-07-31T03:01:37;67124.09;;;18.51;100.00
37132;BME280;23035;50.032;21.978;2023-07-31T03:06:41;67135.50;;;18.65;100.00
37132;BME280;23035;50.032;21.978;2023-07-31T03:11:48;67167.13;;;18.87;100.00
37132;BME280;23035;50.032;21.978;2023-07-31T03:16:57;67162.97;;;18.88;100.00
37132;BME280;23035;50.032;21.978;2023-07-31T03:22:03;67172.19;;;18.99;100.00
37132;BME280;23035;50.032;21.978;2023-07-31T03:27:08;67193.16;;;19.16;100.00
37132;BME280;23035;50.032;21.978;2023-07-31T03:32:13;67148.38;;;18.74;100.00
37132;BME280;23035;50.032;21.978;2023-07-31T03:37:18;67140.75;;;18.65;100.00
37132;BME280;23035;50.032;21.978;2023-07-31T03:42:22;67083.69;;;18.16;100.00
37132;BME280;23035;50.032;21.978;2023-07-31T03:47:27;67134.88;;;18.61;100.00
37132;BME280;23035;50.032;21.978;2023-07-31T03:52:31;67198.56;;;19.22;100.00
37132;BME280;23035;50.032;21.978;2023-07-31T03:57:35;67179.75;;;19.06;100.00
37132;BME280;23035;50.032;21.978;2023-07-31T04:02:41;67172.13;;;18.97;100.00
37132;BME280;23035;50.032;21.978;2023-07-31T04:07:45;67219.09;;;19.41;100.00
37132;BME280;23035;50.032;21.978;2023-07-31T04:12:49;67250.50;;;19.73;100.00
37132;BME280;23035;50.032;21.978;2023-07-31T04:17:55;67294.78;;;20.15;100.00
37132;BME280;23035;50.032;21.978;2023-07-31T04:22:59;67318.47;;;20.34;100.00
37132;BME280;23035;50.032;21.978;2023-07-31T04:28:03;67265.13;;;19.89;100.00
37132;BME280;23035;50.032;21.978;2023-07-31T04:33:09;67305.56;;;20.25;100.00
37132;BME280;23035;50.032;21.978;2023-07-31T04:38:13;67335.78;;;20.51;100.00
37132;BME280;23035;50.032;21.978;2023-07-31T04:43:17;67351.53;;;20.68;100.00
37132;BME280;23035;50.032;21.978;2023-07-31T04:48:23;67365.50;;;20.79;100.00
37132;BME280;23035;50.032;21.978;2023-07-31T04:53:27;67325.13;;;20.46;100.00
37132;BME280;23035;50.032;21.978;2023-07-31T04:58:31;67282.41;;;20.05;100.00
37132;BME280;23035;50.032;21.978;2023-07-31T05:03:37;67320.66;;;20.37;100.00
37132;BME280;23035;50.032;21.978;2023-07-31T05:08:41;67309.47;;;20.33;100.00
37132;BME280;23035;50.032;21.978;2023-07-31T05:13:45;67196.97;;;19.20;100.00
37132;BME280;23035;50.032;21.978;2023-07-31T05:18:50;67181.44;;;19.10;100.00
37132;BME280;23035;50.032;21.978;2023-07-31T05:23:54;67199.13;;;19.22;100.00
37132;BME280;23035;50.032;21.978;2023-07-31T05:28:58;67165.19;;;18.92;100.00
37132;BME280;23035;50.032;21.978;2023-07-31T05:34:04;67188.81;;;19.10;100.00
37132;BME280;23035;50.032;21.978;2023-07-31T05:39:08;67075.13;;;18.10;100.00
37132;BME280;23035;50.032;21.978;2023-07-31T05:44:12;67112.22;;;18.40;100.00
37132;BME280;23035;50.032;21.978;2023-07-31T05:49:17;67127.91;;;18.57;100.00
37132;BME280;23035;50.032;21.978;2023-07-31T05:54:21;67062.72;;;17.98;100.00
37132;BME280;23035;50.032;21.978;2023-07-31T05:59:25;67154.94;;;18.83;100.00
37132;BME280;23035;50.032;21.978;2023-07-31T06:04:31;67117.66;;;18.48;100.00
37132;BME280;23035;50.032;21.978;2023-07-31T06:09:35;67186.28;;;19.15;100.00
37132;BME280;23035;50.032;21.978;2023-07-31T06:14:39;67242.91;;;19.66;100.00
37132;BME280;23035;50.032;21.978;2023-07-31T06:19:45;67186.72;;;19.10;100.00
37132;BME280;23035;50.032;21.978;2023-07-31T06:24:49;67226.66;;;19.48;100.00
37132;BME280;23035;50.032;21.978;2023-07-31T06:29:56;67172.19;;;18.99;100.00
37132;BME280;23035;50.032;21.978;2023-07-31T06:35:03;67208.78;;;19.29;100.00
37132;BME280;23035;50.032;21.978;2023-07-31T06:40:08;67167.81;;;18.92;100.00
37132;BME280;23035;50.032;21.978;2023-07-31T06:45:13;67250.91;;;19.68;100.00
37132;BME280;23035;50.032;21.978;2023-07-31T06:50:18;67207.69;;;19.28;100.00
37132;BME280;23035;50.032;21.978;2023-07-31T06:55:23;67256.34;;;19.76;100.00
37132;BME280;23035;50.032;21.978;2023-07-31T07:00:27;67312.13;;;20.33;100.00
37132;BME280;23035;50.032;21.978;2023-07-31T07:05:33;67320.66;;;20.37;100.00
37132;BME280;23035;50.032;21.978;2023-07-31T07:10:38;67337.47;;;20.55;100.00
37132;BME280;23035;50.032;21.978;2023-07-31T07:15:42;67322.81;;;20.39;100.00
37132;BME280;23035;50.032;21.978;2023-07-31T07:20:50;67268.78;;;19.88;100.00
37132;BME280;23035;50.032;21.978;2023-07-31T07:25:56;67345.09;;;20.65;100.00
37132;BME280;23035;50.032;21.978;2023-07-31T07:31:00;67354.66;;;20.66;100.00
37132;BME280;23035;50.032;21.978;2023-07-31T07:36:05;67355.31;;;20.72;100.00
37132;BME280;23035;50.032;21.978;2023-07-31T07:41:12;67257.38;;;19.74;100.00
37132;BME280;23035;50.032;21.978;2023-07-31T07:46:16;67231.56;;;19.55;100.00
37132;BME280;23035;50.032;21.978;2023-07-31T07:51:22;67267.25;;;19.89;100.00
37132;BME280;23035;50.032;21.978;2023-07-31T07:56:26;67315.22;;;20.31;100.00
37132;BME280;23035;50.032;21.978;2023-07-31T08:01:30;67282.88;;;20.03;100.00
37132;BME280;23035;50.032;21.978;2023-07-31T08:06:36;67399.59;;;21.13;100.00
37132;BME280;23035;50.032;21.978;2023-07-31T08:11:40;67574.28;;;22.75;100.00
37132;BME280;23035;50.032;21.978;2023-07-31T08:16:44;67359.63;;;20.76;100.00
37132;BME280;23035;50.032;21.978;2023-07-31T08:21:50;67283.97;;;20.04;100.00
37132;BME280;23035;50.032;21.978;2023-07-31T08:26:57;67296.31;;;20.14;100.00
37132;BME280;23035;50.032;21.978;2023-07-31T08:32:01;67352.06;;;20.69;100.00
37132;BME280;23035;50.032;21.978;2023-07-31T08:37:07;67323.94;;;20.42;100.00
37132;BME280;23035;50.032;21.978;2023-07-31T08:42:10;67261.75;;;19.81;100.00
37132;BME280;23035;50.032;21.978;2023-07-31T08:47:16;67370.38;;;20.83;100.00
37132;BME280;23035;50.032;21.978;2023-07-31T08:52:21;67447.75;;;21.59;100.00
37132;BME280;23035;50.032;21.978;2023-07-31T08:57:26;67379.63;;;20.95;100.00
37132;BME280;23035;50.032;21.978;2023-07-31T09:02:36;67494.25;;;22.02;100.00
37132;BME280;23035;50.032;21.978;2023-07-31T09:07:45;67468.97;;;21.84;100.00
37132;BME280;23035;50.032;21.978;2023-07-31T09:12:51;67513.19;;;22.20;100.00
37132;BME280;23035;50.032;21.978;2023-07-31T09:17:59;67547.75;;;22.50;100.00
37132;BME280;23035;50.032;21.978;2023-07-31T09:23:10;67506.78;;;22.17;100.00
37132;BME280;23035;50.032;21.978;2023-07-31T09:28:14;67488.31;;;21.97;100.00
37132;BME280;23035;50.032;21.978;2023-07-31T09:33:19;67508.94;;;22.19;100.00
37132;BME280;23035;50.032;21.978;2023-07-31T09:38:24;67569.53;;;22.76;100.00
37132;BME280;23035;50.032;21.978;2023-07-31T09:43:29;67533.81;;;22.42;100.00
37132;BME280;23035;50.032;21.978;2023-07-31T09:48:38;67487.22;;;21.96;100.00
37132;BME280;23035;50.032;21.978;2023-07-31T09:53:49;67557.97;;;22.57;100.00
37132;BME280;23035;50.032;21.978;2023-07-31T09:58:54;67508.34;;;22.16;100.00
37132;BME280;23035;50.032;21.978;2023-07-31T10:04:01;67615.97;;;23.14;100.00
37132;BME280;23035;50.032;21.978;2023-07-31T10:09:09;67517.59;;;22.27;100.00
37132;BME280;23035;50.032;21.978;2023-07-31T10:14:14;67389.28;;;21.01;100.00
37132;BME280;23035;50.032;21.978;2023-07-31T10:19:18;67433.69;;;21.45;100.00
37132;BME280;23035;50.032;21.978;2023-07-31T10:24:32;67586.25;;;22.89;100.00
37132;BME280;23035;50.032;21.978;2023-07-31T10:29:41;67597.56;;;22.97;100.00
37132;BME280;23035;50.032;21.978;2023-07-31T10:34:47;67613.81;;;23.12;100.00
37132;BME280;23035;50.032;21.978;2023-07-31T10:40:03;67481.25;;;21.90;100.00
37132;BME280;23035;50.032;21.978;2023-07-31T10:45:08;67571.69;;;22.78;100.00
37132;BME280;23035;50.032;21.978;2023-07-31T10:50:18;67638.69;;;23.36;100.00
37132;BME280;23035;50.032;21.978;2023-07-31T10:55:38;67653.88;;;23.50;100.00
37132;BME280;23035;50.032;21.978;2023-07-31T11:00:44;67623.06;;;23.24;96.22
37132;BME280;23035;50.032;21.978;2023-07-31T11:06:00;67618.72;;;23.19;99.36
37132;BME280;23035;50.032;21.978;2023-07-31T11:11:09;67747.63;;;24.41;89.97
37132;BME280;23035;50.032;21.978;2023-07-31T11:16:14;67655.59;;;23.57;89.89
37132;BME280;23035;50.032;21.978;2023-07-31T11:21:19;67629.63;;;23.32;95.10
37132;BME280;23035;50.032;21.978;2023-07-31T11:26:25;67670.72;;;23.68;88.82
37132;BME280;23035;50.032;21.978;2023-07-31T11:31:30;67725.34;;;24.17;82.34
37132;BME280;23035;50.032;21.978;2023-07-31T11:36:34;67715.72;;;24.13;83.97
37132;BME280;23035;50.032;21.978;2023-07-31T11:41:41;67713.44;;;24.06;85.79
37132;BME280;23035;50.032;21.978;2023-07-31T11:46:45;67625.28;;;23.28;88.07
37132;BME280;23035;50.032;21.978;2023-07-31T11:51:50;67683.66;;;23.78;88.83
37132;BME280;23035;50.032;21.978;2023-07-31T11:56:55;67698.38;;;23.97;87.92
37132;BME280;23035;50.032;21.978;2023-07-31T12:02:01;67757.94;;;24.50;86.38
37132;BME280;23035;50.032;21.978;2023-07-31T12:07:06;67689.72;;;23.89;88.81
37132;BME280;23035;50.032;21.978;2023-07-31T12:12:19;67785.66;;;24.81;81.55
37132;BME280;23035;50.032;21.978;2023-07-31T12:17:24;67707.00;;;24.02;83.42
37132;BME280;23035;50.032;21.978;2023-07-31T12:22:29;67731.38;;;24.25;86.61
37132;BME280;23035;50.032;21.978;2023-07-31T12:27:35;67803.47;;;24.96;77.75
37132;BME280;23035;50.032;21.978;2023-07-31T12:32:40;67787.25;;;24.80;79.20
37132;BME280;23035;50.032;21.978;2023-07-31T12:37:46;67917.84;;;26.00;72.75
37132;BME280;23035;50.032;21.978;2023-07-31T12:42:52;67957.50;;;26.40;72.02
37132;BME280;23035;50.032;21.978;2023-07-31T12:47:58;67812.09;;;25.01;71.68
37132;BME280;23035;50.032;21.978;2023-07-31T12:53:02;67706.47;;;24.02;80.92
37132;BME280;23035;50.032;21.978;2023-07-31T12:58:08;67581.31;;;22.82;91.43
37132;BME280;23035;50.032;21.978;2023-07-31T13:03:12;67593.72;;;22.91;96.10
37132;BME280;23035;50.032;21.978;2023-07-31T13:08:17;67575.94;;;22.79;95.58
37132;BME280;23035;50.032;21.978;2023-07-31T13:13:22;67584.63;;;22.87;95.70
37132;BME280;23035;50.032;21.978;2023-07-31T13:18:26;67612.72;;;23.11;88.83
37132;BME280;23035;50.032;21.978;2023-07-31T13:23:31;67768.81;;;24.63;83.03
37132;BME280;23035;50.032;21.978;2023-07-31T13:28:36;68067.66;;;27.43;63.75
37132;BME280;23035;50.032;21.978;2023-07-31T13:33:40;68196.34;;;28.64;58.72
37132;BME280;23035;50.032;21.978;2023-07-31T13:38:46;68133.84;;;28.03;58.94
37132;BME280;23035;50.032;21.978;2023-07-31T13:43:51;68020.34;;;26.94;63.33
37132;BME280;23035;50.032;21.978;2023-07-31T13:48:55;68064.25;;;27.33;63.53
37132;BME280;23035;50.032;21.978;2023-07-31T13:53:59;68035.69;;;27.16;59.97
37132;BME280;23035;50.032;21.978;2023-07-31T13:59:05;68055.16;;;27.32;60.27
37132;BME280;23035;50.032;21.978;2023-07-31T14:04:09;68065.97;;;27.39;59.08
37132;BME280;23035;50.032;21.978;2023-07-31T14:09:13;68222.38;;;28.86;53.76
37132;BME280;23035;50.032;21.978;2023-07-31T14:14:19;68124.66;;;27.97;54.88
37132;BME280;23035;50.032;21.978;2023-07-31T14:19:23;68183.25;;;28.49;54.53
37132;BME280;23035;50.032;21.978;2023-07-31T14:24:28;68083.94;;;27.59;55.80
37132;BME280;23035;50.032;21.978;2023-07-31T14:29:34;68073.63;;;27.49;56.97
37132;BME280;23035;50.032;21.978;2023-07-31T14:34:38;68069.19;;;27.40;56.64
37132;BME280;23035;50.032;21.978;2023-07-31T14:39:42;68144.09;;;28.10;55.52
37132;BME280;23035;50.032;21.978;2023-07-31T14:44:47;68005.25;;;26.85;59.03
37132;BME280;23035;50.032;21.978;2023-07-31T14:49:51;68096.97;;;27.71;57.13
37132;BME280;23035;50.032;21.978;2023-07-31T14:54:55;68133.31;;;28.03;56.98
37132;BME280;23035;50.032;21.978;2023-07-31T15:00:01;68179.53;;;28.51;56.07
37132;BME280;23035;50.032;21.978;2023-07-31T15:05:09;68212.16;;;28.81;56.67
37132;BME280;23035;50.032;21.978;2023-07-31T15:10:14;68288.13;;;29.48;56.20
37132;BME280;23035;50.032;21.978;2023-07-31T15:15:19;68189.28;;;28.57;58.57
37132;BME280;23035;50.032;21.978;2023-07-31T15:20:23;68134.38;;;28.04;62.45
37132;BME280;23035;50.032;21.978;2023-07-31T15:25:27;68074.13;;;27.47;64.00
37132;BME280;23035;50.032;21.978;2023-07-31T15:30:33;68100.19;;;27.71;65.53
37132;BME280;23035;50.032;21.978;2023-07-31T15:35:37;68134.50;;;28.11;65.07
37132;BME280;23035;50.032;21.978;2023-07-31T15:40:41;68065.44;;;27.39;67.93
37132;BME280;23035;50.032;21.978;2023-07-31T15:45:47;67985.09;;;26.64;71.07
37132;BME280;23035;50.032;21.978;2023-07-31T15:50:51;68051.91;;;27.29;69.85
37132;BME280;23035;50.032;21.978;2023-07-31T15:55:58;68098.56;;;27.70;69.13
37132;BME280;23035;50.032;21.978;2023-07-31T16:01:06;68088.81;;;27.63;69.68
37132;BME280;23035;50.032;21.978;2023-07-31T16:06:10;68048.66;;;27.26;71.07
37132;BME280;23035;50.032;21.978;2023-07-31T16:11:14;68001.94;;;26.79;74.17
37132;BME280;23035;50.032;21.978;2023-07-31T16:16:20;67870.22;;;25.61;77.33
37132;BME280;23035;50.032;21.978;2023-07-31T16:21:25;67820.25;;;25.09;80.04
37132;BME280;23035;50.032;21.978;2023-07-31T16:26:30;67782.84;;;24.74;81.76
37132;BME280;23035;50.032;21.978;2023-07-31T16:31:37;67706.94;;;24.00;85.77
37132;BME280;23035;50.032;21.978;2023-07-31T16:36:58;67685.88;;;23.83;86.12
37132;BME280;23035;50.032;21.978;2023-07-31T16:42:03;67686.91;;;23.81;85.77
37132;BME280;23035;50.032;21.978;2023-07-31T16:47:09;67736.78;;;24.30;85.18
37132;BME280;23035;50.032;21.978;2023-07-31T16:52:13;67608.50;;;23.12;91.20
37132;BME280;23035;50.032;21.978;2023-07-31T16:57:18;67600.94;;;23.05;91.60
37132;BME280;23035;50.032;21.978;2023-07-31T17:02:24;67637.66;;;23.37;91.95
37132;BME280;23035;50.032;21.978;2023-07-31T17:07:28;67616.03;;;23.17;89.78
37132;BME280;23035;50.032;21.978;2023-07-31T17:12:33;67642.56;;;23.42;89.99
37132;BME280;23035;50.032;21.978;2023-07-31T17:17:38;67607.91;;;23.09;91.53
37132;BME280;23035;50.032;21.978;2023-07-31T17:22:43;67538.63;;;22.44;93.46
37132;BME280;23035;50.032;21.978;2023-07-31T17:27:51;67595.41;;;22.95;91.87
37132;BME280;23035;50.032;21.978;2023-07-31T17:32:58;67539.22;;;22.47;91.26
37132;BME280;23035;50.032;21.978;2023-07-31T17:38:02;67580.38;;;22.86;87.98
37132;BME280;23035;50.032;21.978;2023-07-31T17:43:06;67613.84;;;23.15;87.02
37132;BME280;23035;50.032;21.978;2023-07-31T17:48:11;67531.53;;;22.35;92.16
37132;BME280;23035;50.032;21.978;2023-07-31T17:53:16;67464.97;;;21.72;98.51
37132;BME280;23035;50.032;21.978;2023-07-31T17:58:20;67550.53;;;22.55;96.65
37132;BME280;23035;50.032;21.978;2023-07-31T18:03:26;67421.81;;;21.34;100.00
37132;BME280;23035;50.032;21.978;2023-07-31T18:08:30;67502.25;;;22.05;98.79
37132;BME280;23035;50.032;21.978;2023-07-31T18:13:34;67470.34;;;21.75;100.00
37132;BME280;23035;50.032;21.978;2023-07-31T18:18:40;67354.22;;;20.71;100.00
37132;BME280;23035;50.032;21.978;2023-07-31T18:23:44;67462.91;;;21.73;100.00
37132;BME280;23035;50.032;21.978;2023-07-31T18:28:48;67342.28;;;20.57;100.00
37132;BME280;23035;50.032;21.978;2023-07-31T18:33:54;67353.69;;;20.70;100.00
37132;BME280;23035;50.032;21.978;2023-07-31T18:38:58;67296.41;;;20.16;100.00
37132;BME280;23035;50.032;21.978;2023-07-31T18:44:02;67339.56;;;20.54;100.00
37132;BME280;23035;50.032;21.978;2023-07-31T18:49:07;67229.28;;;19.48;100.00
37132;BME280;23035;50.032;21.978;2023-07-31T18:54:11;67269.38;;;19.91;100.00
37132;BME280;23035;50.032;21.978;2023-07-31T18:59:15;67221.25;;;19.43;100.00
37132;BME280;23035;50.032;21.978;2023-07-31T19:04:23;67249.41;;;19.72;100.00
37132;BME280;23035;50.032;21.978;2023-07-31T19:09:28;67266.75;;;19.91;100.00
37132;BME280;23035;50.032;21.978;2023-07-31T19:14:33;67361.25;;;20.77;100.00
37132;BME280;23035;50.032;21.978;2023-07-31T19:19:39;67346.00;;;20.58;100.00
37132;BME280;23035;50.032;21.978;2023-07-31T19:24:42;67272.16;;;19.96;100.00
37132;BME280;23035;50.032;21.978;2023-07-31T19:29:48;67212.69;;;19.37;100.00
37132;BME280;23035;50.032;21.978;2023-07-31T19:34:53;67260.69;;;19.80;100.00
37132;BME280;23035;50.032;21.978;2023-07-31T19:39:57;67218.56;;;19.40;100.00
37132;BME280;23035;50.032;21.978;2023-07-31T19:45:02;67247.78;;;19.70;100.00
37132;BME280;23035;50.032;21.978;2023-07-31T19:50:08;67338.06;;;20.58;100.00
37132;BME280;23035;50.032;21.978;2023-07-31T19:55:12;67259.63;;;19.79;100.00
37132;BME280;23035;50.032;21.978;2023-07-31T20:00:16;67282.34;;;20.03;100.00
37132;BME280;23035;50.032;21.978;2023-07-31T20:05:24;67221.72;;;19.41;100.00
37132;BME280;23035;50.032;21.978;2023-07-31T20:10:29;67221.78;;;19.43;100.00
37132;BME280;23035;50.032;21.978;2023-07-31T20:15:33;67281.28;;;20.02;100.00
37132;BME280;23035;50.032;21.978;2023-07-31T20:20:39;67275.25;;;19.94;100.00
37132;BME280;23035;50.032;21.978;2023-07-31T20:25:43;67253.66;;;19.73;100.00
37132;BME280;23035;50.032;21.978;2023-07-31T20:30:47;67161.94;;;18.89;100.00
37132;BME280;23035;50.032;21.978;2023-07-31T20:35:53;67197.03;;;19.23;100.00
37132;BME280;23035;50.032;21.978;2023-07-31T20:40:57;67165.25;;;18.95;100.00
37132;BME280;23035;50.032;21.978;2023-07-31T20:46:01;67163.03;;;18.90;100.00
37132;BME280;23035;50.032;21.978;2023-07-31T20:51:06;67081.47;;;18.11;100.00
37132;BME280;23035;50.032;21.978;2023-07-31T20:56:10;67126.78;;;18.54;100.00
37132;BME280;23035;50.032;21.978;2023-07-31T21:01:14;67096.63;;;18.28;100.00
37132;BME280;23035;50.032;21.978;2023-07-31T21:06:20;67044.78;;;17.76;100.00
37132;BME280;23035;50.032;21.978;2023-07-31T21:11:24;67172.19;;;18.99;100.00
37132;BME280;23035;50.032;21.978;2023-07-31T21:16:28;67190.00;;;19.16;100.00
37132;BME280;23035;50.032;21.978;2023-07-31T21:21:34;67192.72;;;19.18;100.00
37132;BME280;23035;50.032;21.978;2023-07-31T21:26:37;67152.78;;;18.81;100.00
37132;BME280;23035;50.032;21.978;2023-07-31T21:31:42;67103.09;;;18.34;100.00
37132;BME280;23035;50.032;21.978;2023-07-31T21:36:47;67175.38;;;19.00;100.00
37132;BME280;23035;50.032;21.978;2023-07-31T21:41:51;67198.09;;;19.24;100.00
37132;BME280;23035;50.032;21.978;2023-07-31T21:46:55;67074.44;;;18.04;100.00
37132;BME280;23035;50.032;21.978;2023-07-31T21:52:01;67038.41;;;17.73;100.00
37132;BME280;23035;50.032;21.978;2023-07-31T21:57:05;67017.88;;;17.54;100.00
37132;BME280;23035;50.032;21.978;2023-07-31T22:02:09;67046.41;;;17.78;100.00
37132;BME280;23035;50.032;21.978;2023-07-31T22:07:14;67041.56;;;17.73;100.00
37132;BME280;23035;50.032;21.978;2023-07-31T22:12:18;66947.28;;;16.87;100.00
37132;BME280;23035;50.032;21.978;2023-07-31T22:17:22;66953.81;;;16.96;100.00
37132;BME280;23035;50.032;21.978;2023-07-31T22:22:28;66844.75;;;15.85;100.00
37132;BME280;23035;50.032;21.978;2023-07-31T22:27:32;66901.84;;;16.39;100.00
37132;BME280;23035;50.032;21.978;2023-07-31T22:32:36;66911.47;;;16.46;100.00
37132;BME280;23035;50.032;21.978;2023-07-31T22:37:42;66926.22;;;16.67;100.00
37132;BME280;23035;50.032;21.978;2023-07-31T22:42:46;67059.44;;;17.93;100.00
37132;BME280;23035;50.032;21.978;2023-07-31T22:47:50;66985.53;;;17.23;100.00
37132;BME280;23035;50.032;21.978;2023-07-31T22:52:55;66973.59;;;17.09;100.00
37132;BME280;23035;50.032;21.978;2023-07-31T22:58:00;67056.59;;;17.85;100.00
37132;BME280;23035;50.032;21.978;2023-07-31T23:03:04;67084.75;;;18.17;100.00
37132;BME280;23035;50.032;21.978;2023-07-31T23:08:09;67029.22;;;17.64;100.00
37132;BME280;23035;50.032;21.978;2023-07-31T23:13:14;67082.00;;;18.12;100.00
37132;BME280;23035;50.032;21.978;2023-07-31T23:18:18;67032.38;;;17.65;100.00
37132;BME280;23035;50.032;21.978;2023-07-31T23:23:24;67010.19;;;17.41;100.00
37132;BME280;23035;50.032;21.978;2023-07-31T23:28:28;67025.34;;;17.58;100.00
37132;BME280;23035;50.032;21.978;2023-07-31T23:33:32;66964.44;;;17.01;100.00
37132;BME280;23035;50.032;21.978;2023-07-31T23:38:38;66981.09;;;17.14;100.00
37132;BME280;23035;50.032;21.978;2023-07-31T23:43:42;67032.38;;;17.65;100.00
37132;BME280;23035;50.032;21.978;2023-07-31T23:48:47;66984.38;;;17.19;100.00
37132;BME280;23035;50.032;21.978;2023-07-31T23:53:53;66943.97;;;16.81;100.00
37132;BME280;23035;50.032;21.978;2023-07-31T23:58:57;66953.22;;;16.92;100.00
